首页
METAR-TAF:

METAR-TAF

机场 :

薩尼亞, 安大略省, 加拿大

纬度: 43-00N, 经度: 082-19W, 海拔: 181米

当前天气观测

该预报发布于18分钟前的20:00 UTC
风速8节,风向西,有时为16节阵风,在西转西南西北之间变化
温度 -2°C
湿度 43%
气压 1031 hPa
能見度: 14.5公里
少量云层高于4600英尺

METAR: CYZR 192000Z AUTO 27008G16KT 240V310 9SM FEW046 M02/M13 A3045 RMK SLP323

时间: 15:18 (20:18 UTC)

预报

该预报发布于40分钟前的19:38 UTC
预报有效从19日的 20点(UTC)到 20日的 03点(UTC)
风速12节,风向西北,有时为22节阵风
能見度: 10公里
少量云层高于3000英尺
短暂存在
从 19日的 20点(UTC)到 20日的 03点(UTC)
多云层高于3000英尺

TAF: CYZR 191938Z 1920/2003 31012G22KT P6SM FEW030 TEMPO 1920/2003 BKN030 RMK FCST BASED ON AUTO OBS. NXT FCST WILL BE ISSUED AT 200845Z

超过4000个机场的气象观测和天气预报(METAR&TAF报告)。

可查询的气象台以黄色和红色小点在地图上表示。

将鼠标移到小点上方,可查看气象台名称。

然后点击查看天气观测和预报。

如需切换地图:点击带黑十字的绿色按钮放大地图;点击带横线的绿色按钮缩小地图;或者点击绿色箭头查看邻近地区的地图。


METAR-TAF: